Time;durP1;ratioP1;P1;durP2;ratioP2;P2;SDS_P1;SDS_P2;PMS_P1;PMS_P2;Temp;Humidity;BMP_temperature;BMP_pressure;BME280_temperature;BME280_humidity;BME280_pressure;Samples;Min_cycle;Max_cycle;Signal;HPM_P1;HPM_P2
2021/07/21 00:01:55;;;;;;;;;;;;;;;29.10;36.97;100132.56;5099651;28;921;-34
2021/07/21 00:04:20;;;;;;;;;;;;;;;29.05;37.61;100127.78;5100035;28;807;-35
2021/07/21 00:06:46;;;;;;;;;;;;;;;29.07;37.10;100125.72;5099936;28;878;-37
2021/07/21 00:09:11;;;;;;;;;;;;;;;29.01;37.74;100125.72;5099422;28;756;-34
2021/07/21 00:14:20;;;;;;;;;;;;;;;29.04;37.22;100125.28;5079252;28;1902;-34
2021/07/21 00:17:35;;;;;;;;;;;;;;;29.03;37.97;100132.56;5079320;28;795;-38
2021/07/21 00:22:18;;;;;;;;;;;;;;;29.03;37.79;100129.88;5078606;28;668;-34
2021/07/21 00:24:44;;;;;;;;;;;;;;;29.01;38.32;100134.66;5079301;28;837;-38
2021/07/21 00:27:09;;;;;;;;;;;;;;;29.05;37.64;100137.78;5090134;28;966;-38
2021/07/21 00:29:34;;;;;;;;;;;;;;;29.04;38.02;100138.81;5098885;28;843;-38
2021/07/21 00:32:00;;;;;;;;;;;;;;;29.08;38.27;100137.34;5099326;28;803;-35
2021/07/21 00:34:25;;;;;;;;;;;;;;;28.98;37.74;100137.78;5099384;28;1906;-34
2021/07/21 00:36:50;;;;;;;;;;;;;;;29.02;37.93;100135.50;5099171;28;795;-35
2021/07/21 00:39:15;;;;;;;;;;;;;;;29.00;38.17;100140.28;5099221;28;882;-34
2021/07/21 00:41:41;;;;;;;;;;;;;;;29.04;37.73;100141.53;5098604;28;994;-35
2021/07/21 00:44:06;;;;;;;;;;;;;;;29.03;38.34;100134.47;5098969;28;761;-34
2021/07/21 00:46:32;;;;;;;;;;;;;;;29.02;38.27;100136.34;5099383;28;788;-35
2021/07/21 00:48:57;;;;;;;;;;;;;;;29.02;38.15;100136.34;5098558;28;1110;-38
2021/07/21 00:51:22;;;;;;;;;;;;;;;29.00;38.67;100141.13;5098812;28;1142;-34
2021/07/21 00:53:48;;;;;;;;;;;;;;;29.05;38.56;100146.75;5098945;28;1981;-38
2021/07/21 00:56:13;;;;;;;;;;;;;;;29.04;38.46;100147.78;5080796;28;994;-34
2021/07/21 00:58:38;;;;;;;;;;;;;;;29.08;38.62;100149.03;5098735;28;764;-34
2021/07/21 01:01:04;;;;;;;;;;;;;;;29.04;38.38;100146.94;5098668;28;772;-34
2021/07/21 01:03:29;;;;;;;;;;;;;;;28.97;38.64;100141.53;5098377;28;975;-34
2021/07/21 01:05:55;;;;;;;;;;;;;;;29.09;38.81;100152.56;5098725;28;776;-37
2021/07/21 01:08:21;;;;;;;;;;;;;;;29.01;38.47;100144.66;5098733;28;821;-38
2021/07/21 01:11:04;;;;;;;;;;;;;;;29.08;38.80;100142.75;5098340;28;1446;-34
2021/07/21 01:13:32;;;;;;;;;;;;;;;29.03;38.50;100140.69;5078199;28;1909;-38
2021/07/21 01:16:04;;;;;;;;;;;;;;;28.98;38.18;100143.19;5059794;28;1110;-37
2021/07/21 01:18:34;;;;;;;;;;;;;;;29.07;38.73;100138.41;5077779;28;812;-37
2021/07/21 01:21:17;;;;;;;;;;;;;;;29.00;38.47;100141.13;5060137;28;1223;-35
2021/07/21 01:23:49;;;;;;;;;;;;;;;29.00;38.25;100149.25;5077957;28;744;-35
2021/07/21 01:26:18;;;;;;;;;;;;;;;28.94;38.91;100152.75;5080964;28;971;-35
2021/07/21 01:28:45;;;;;;;;;;;;;;;29.00;38.45;100157.38;5080017;28;883;-35
2021/07/21 01:31:11;;;;;;;;;;;;;;;29.01;38.58;100150.91;5079964;28;854;-37
2021/07/21 01:33:38;;;;;;;;;;;;;;;28.98;38.98;100158.63;5097755;28;1906;-35
2021/07/21 01:36:05;;;;;;;;;;;;;;;28.93;38.45;100160.03;5080481;28;754;-35
2021/07/21 01:38:31;;;;;;;;;;;;;;;29.02;38.87;100158.00;5097595;28;843;-35
2021/07/21 01:40:57;;;;;;;;;;;;;;;29.05;38.30;100156.72;5079125;28;950;-35
2021/07/21 01:43:25;;;;;;;;;;;;;;;28.96;38.36;100165.03;5079588;28;792;-35
2021/07/21 01:45:51;;;;;;;;;;;;;;;28.90;38.96;100156.91;5078799;28;885;-36
2021/07/21 01:48:16;;;;;;;;;;;;;;;28.94;38.53;100156.31;5097666;28;1043;-35
2021/07/21 01:50:41;;;;;;;;;;;;;;;28.94;38.64;100159.03;5079606;28;1190;-37
2021/07/21 01:53:07;;;;;;;;;;;;;;;28.97;38.80;100163.19;5097678;28;1918;-35
2021/07/21 01:55:32;;;;;;;;;;;;;;;28.99;38.35;100157.56;5079834;28;832;-35
2021/07/21 01:57:57;;;;;;;;;;;;;;;29.01;38.69;100159.03;5078966;28;1014;-38
2021/07/21 02:00:23;;;;;;;;;;;;;;;29.05;38.18;100163.00;5097416;28;806;-35
2021/07/21 02:02:50;;;;;;;;;;;;;;;29.02;38.37;100165.28;5097861;28;767;-34
2021/07/21 02:05:16;;;;;;;;;;;;;;;29.01;38.63;100172.56;5078713;28;760;-34
2021/07/21 02:07:42;;;;;;;;;;;;;;;29.01;38.23;100169.03;5097238;28;760;-35
2021/07/21 02:10:08;;;;;;;;;;;;;;;29.09;38.55;100176.94;5097582;28;841;-38
2021/07/21 02:12:36;;;;;;;;;;;;;;;29.06;38.01;100175.47;5078223;28;1909;-34
2021/07/21 02:15:02;;;;;;;;;;;;;;;29.00;38.58;100181.72;5079456;28;764;-35
2021/07/21 02:17:27;;;;;;;;;;;;;;;29.02;38.70;100166.13;5097461;28;771;-34
2021/07/21 02:19:52;;;;;;;;;;;;;;;29.02;38.12;100170.69;5078823;28;816;-35
2021/07/21 02:22:18;;;;;;;;;;;;;;;28.97;38.71;100184.88;5079400;28;818;-38
2021/07/21 02:24:44;;;;;;;;;;;;;;;29.01;38.44;100175.25;5097220;28;836;-37
2021/07/21 02:27:09;;;;;;;;;;;;;;;28.95;38.57;100179.63;5096872;28;974;-34
2021/07/21 02:29:34;;;;;;;;;;;;;;;29.05;38.68;100176.53;5097584;28;752;-34
2021/07/21 02:32:00;;;;;;;;;;;;;;;29.09;38.31;100175.03;5096928;28;891;-35
2021/07/21 02:34:25;;;;;;;;;;;;;;;28.97;38.80;100160.50;5096722;28;1902;-37
2021/07/21 02:36:50;;;;;;;;;;;;;;;29.02;38.81;100173.41;5097191;28;879;-39
2021/07/21 02:39:15;;;;;;;;;;;;;;;28.99;38.51;100173.81;5079144;28;803;-35
2021/07/21 02:41:43;;;;;;;;;;;;;;;28.97;38.99;100176.75;5096293;28;938;-35
2021/07/21 02:44:08;;;;;;;;;;;;;;;29.07;38.77;100179.88;5096446;28;815;-38
2021/07/21 02:46:33;;;;;;;;;;;;;;;28.96;38.47;100178.56;5096642;28;820;-34
2021/07/21 02:49:00;;;;;;;;;;;;;;;28.99;38.90;100184.66;5096444;28;1075;-35
2021/07/21 02:51:46;;;;;;;;;;;;;;;29.05;38.36;100172.97;5078900;28;1143;-35
2021/07/21 02:54:19;;;;;;;;;;;;;;;29.00;38.80;100183.59;5095555;28;1909;-35
2021/07/21 02:56:46;;;;;;;;;;;;;;;28.99;39.04;100187.38;5078185;28;1014;-35
2021/07/21 02:59:13;;;;;;;;;;;;;;;28.98;38.71;100185.72;5078936;28;771;-34
2021/07/21 03:01:39;;;;;;;;;;;;;;;28.99;39.06;100192.78;5078890;28;787;-34
2021/07/21 03:04:04;;;;;;;;;;;;;;;28.92;38.89;100184.63;5078720;28;854;-37
2021/07/21 03:06:30;;;;;;;;;;;;;;;28.92;38.79;100190.03;5078839;28;764;-39
2021/07/21 03:08:55;;;;;;;;;;;;;;;28.95;39.07;100193.16;5096420;28;813;-34
2021/07/21 03:11:21;;;;;;;;;;;;;;;28.87;38.89;100189.81;5095909;28;986;-34
2021/07/21 03:14:05;;;;;;;;;;;;;;;28.92;39.22;100192.75;5078590;28;1902;-33
2021/07/21 03:16:31;;;;;;;;;;;;;;;28.96;38.79;100194.81;5081104;28;788;-44
2021/07/21 03:19:00;;;;;;;;;;;;;;;28.88;38.85;100200.44;5101128;28;832;-35
2021/07/21 03:21:26;;;;;;;;;;;;;;;28.91;39.31;100196.50;5082525;28;917;-35
2021/07/21 03:23:51;;;;;;;;;;;;;;;28.90;38.78;100208.34;5099941;28;799;-36
2021/07/21 03:26:16;;;;;;;;;;;;;;;28.91;39.34;100205.44;5082237;28;963;-33
2021/07/21 03:28:42;;;;;;;;;;;;;;;28.98;39.33;100207.38;5082449;28;827;-39
2021/07/21 03:31:07;;;;;;;;;;;;;;;28.99;38.95;100204.44;5100606;28;787;-41
2021/07/21 03:33:32;;;;;;;;;;;;;;;29.01;39.34;100209.66;5082066;28;1905;-42
2021/07/21 03:36:02;;;;;;;;;;;;;;;28.85;39.15;100206.28;5081653;28;811;-36
2021/07/21 03:38:27;;;;;;;;;;;;;;;28.93;39.00;100206.06;5082257;28;792;-35
2021/07/21 03:40:53;;;;;;;;;;;;;;;28.89;39.32;100212.97;5082271;28;970;-35
2021/07/21 03:43:18;;;;;;;;;;;;;;;28.87;39.09;100211.50;5082013;28;842;-34
2021/07/21 03:45:43;;;;;;;;;;;;;;;27.91;43.65;100213.13;5100198;28;807;-47
2021/07/21 03:48:09;;;;;;;;;;;;;;;27.62;44.86;100210.50;5099807;28;1155;-44
2021/07/21 03:50:34;;;;;;;;;;;;;;;27.87;44.09;100217.28;5081240;28;843;-34
2021/07/21 03:52:59;;;;;;;;;;;;;;;28.23;42.26;100221.56;5100042;28;1903;-39
2021/07/21 03:55:25;;;;;;;;;;;;;;;28.66;41.68;100224.19;5081838;28;748;-37
2021/07/21 03:57:51;;;;;;;;;;;;;;;28.81;40.20;100227.50;5081395;28;951;-45
2021/07/21 04:00:17;;;;;;;;;;;;;;;29.07;40.03;100231.31;5100103;28;720;-49
2021/07/21 04:02:42;;;;;;;;;;;;;;;29.02;40.03;100219.44;5100089;28;751;-34
2021/07/21 04:05:13;;;;;;;;;;;;;;;29.14;39.47;100228.59;5081497;28;835;-41
2021/07/21 04:07:39;;;;;;;;;;;;;;;29.15;39.65;100232.97;5082349;28;794;-36
2021/07/21 04:10:05;;;;;;;;;;;;;;;29.25;39.29;100227.13;5081619;28;914;-34
2021/07/21 04:12:30;;;;;;;;;;;;;;;29.19;38.96;100226.09;5098902;28;1956;-43
2021/07/21 04:14:55;;;;;;;;;;;;;;;29.17;39.43;100232.75;5081446;28;768;-42
2021/07/21 04:17:21;;;;;;;;;;;;;;;29.23;38.64;100228.38;5081459;28;804;-43
2021/07/21 04:19:46;;;;;;;;;;;;;;;29.23;39.19;100234.63;5081746;28;729;-46
2021/07/21 04:22:12;;;;;;;;;;;;;;;29.21;39.06;100242.94;5099665;28;799;-43
2021/07/21 04:24:37;;;;;;;;;;;;;;;29.26;38.49;100233.38;5081482;28;831;-46
2021/07/21 04:27:03;;;;;;;;;;;;;;;29.25;38.76;100245.25;5079672;28;951;-43
2021/07/21 04:29:28;;;;;;;;;;;;;;;29.26;38.82;100253.16;5099639;28;741;-40
2021/07/21 04:31:54;;;;;;;;;;;;;;;29.20;38.15;100246.72;5099330;28;749;-45
2021/07/21 04:34:19;;;;;;;;;;;;;;;29.25;38.38;100251.50;5099313;28;1926;-45
2021/07/21 04:36:45;;;;;;;;;;;;;;;29.24;38.48;100247.13;5099137;28;797;-47
2021/07/21 04:39:14;;;;;;;;;;;;;;;29.23;38.40;100253.56;5099258;28;791;-40
2021/07/21 04:41:39;;;;;;;;;;;;;;;29.27;38.48;100257.53;5098667;28;955;-41
2021/07/21 04:44:04;;;;;;;;;;;;;;;29.18;38.28;100258.78;5081228;28;760;-41
2021/07/21 04:46:32;;;;;;;;;;;;;;;29.25;38.13;100261.50;5098839;28;863;-44
2021/07/21 04:48:58;;;;;;;;;;;;;;;29.25;38.45;100264.19;5098842;28;1067;-46
2021/07/21 04:51:23;;;;;;;;;;;;;;;29.26;37.90;100261.28;5099056;28;1131;-40
2021/07/21 04:53:50;;;;;;;;;;;;;;;29.11;38.45;100261.53;5098547;28;1981;-45
2021/07/21 04:56:16;;;;;;;;;;;;;;;29.28;38.36;100269.22;5080450;28;1035;-40
2021/07/21 04:58:41;;;;;;;;;;;;;;;29.25;37.99;100270.47;5098927;28;795;-40
2021/07/21 05:01:06;;;;;;;;;;;;;;;29.13;38.51;100267.53;5098168;28;807;-43
2021/07/21 05:03:32;;;;;;;;;;;;;;;29.24;38.76;100266.09;5098201;28;855;-40
2021/07/21 05:05:58;;;;;;;;;;;;;;;29.26;38.28;100272.13;5088320;28;820;-40
2021/07/21 05:08:23;;;;;;;;;;;;;;;29.25;38.09;100270.47;5078229;28;811;-45
2021/07/21 05:10:48;;;;;;;;;;;;;;;29.24;38.65;100263.38;5078437;28;935;-38
2021/07/21 05:13:13;;;;;;;;;;;;;;;29.30;38.38;100272.53;5098729;28;1970;-40
2021/07/21 05:15:44;;;;;;;;;;;;;;;29.23;38.02;100266.31;5098474;28;739;-38
2021/07/21 05:18:10;;;;;;;;;;;;;;;29.21;38.39;100264.63;5093188;28;839;-40
2021/07/21 05:20:35;;;;;;;;;;;;;;;29.15;39.09;100273.59;5078069;28;883;-41
2021/07/21 05:23:01;;;;;;;;;;;;;;;29.21;38.37;100272.75;5078407;28;815;-39
2021/07/21 05:25:26;;;;;;;;;;;;;;;29.19;38.16;100268.59;5078135;28;811;-43
2021/07/21 05:27:51;;;;;;;;;;;;;;;29.30;38.04;100276.09;5094855;28;963;-34
2021/07/21 05:30:16;;;;;;;;;;;;;;;29.34;38.62;100269.19;5098306;28;839;-34
2021/07/21 05:32:42;;;;;;;;;;;;;;;29.34;38.85;100280.03;5077828;28;1909;-37
2021/07/21 05:35:07;;;;;;;;;;;;;;;29.44;38.30;100281.50;5077810;28;771;-34
2021/07/21 05:37:33;;;;;;;;;;;;;;;29.41;38.14;100290.06;5083228;28;1429;-35
2021/07/21 05:39:58;;;;;;;;;;;;;;;29.40;38.11;100280.25;5097205;28;779;-34
2021/07/21 05:42:23;;;;;;;;;;;;;;;29.40;38.70;100286.50;5097652;28;962;-44
2021/07/21 05:44:49;;;;;;;;;;;;;;;29.41;39.03;100290.84;5083071;28;902;-40
2021/07/21 05:47:14;;;;;;;;;;;;;;;29.39;38.76;100290.25;5080379;28;1167;-35
2021/07/21 05:49:39;;;;;;;;;;;;;;;29.44;38.30;100292.34;5097854;28;803;-43
2021/07/21 05:52:05;;;;;;;;;;;;;;;29.48;38.37;100292.75;5110478;28;1214;-38
2021/07/21 05:54:30;;;;;;;;;;;;;;;29.53;38.29;100293.78;5117594;28;1979;-35
2021/07/21 05:56:56;;;;;;;;;;;;;;;29.59;38.43;100292.13;5107373;28;1174;-35
2021/07/21 05:59:21;;;;;;;;;;;;;;;29.55;38.47;100297.13;5114443;28;847;-34
2021/07/21 06:01:46;;;;;;;;;;;;;;;29.66;37.83;100306.50;5118167;28;792;-43
2021/07/21 06:04:11;;;;;;;;;;;;;;;29.54;38.01;100303.59;5117732;28;807;-36
2021/07/21 06:06:37;;;;;;;;;;;;;;;29.59;38.14;100308.41;5117538;28;960;-43
2021/07/21 06:09:03;;;;;;;;;;;;;;;29.67;38.55;100310.03;5116828;28;1471;-43
2021/07/21 06:11:28;;;;;;;;;;;;;;;29.74;37.99;100312.75;5117183;28;954;-43
2021/07/21 06:13:57;;;;;;;;;;;;;;;29.74;37.83;100304.63;5117903;28;1901;-44
2021/07/21 06:16:22;;;;;;;;;;;;;;;29.65;38.06;100323.81;5117634;28;820;-43
2021/07/21 06:18:48;;;;;;;;;;;;;;;29.63;38.48;100320.47;5117166;28;1372;-45
2021/07/21 06:21:13;;;;;;;;;;;;;;;29.69;38.39;100316.94;5116864;28;1463;-39
2021/07/21 06:23:38;;;;;;;;;;;;;;;29.67;38.18;100323.59;5107615;28;828;-37
2021/07/21 06:26:03;;;;;;;;;;;;;;;29.64;38.29;100319.44;5117233;28;918;-44
2021/07/21 06:28:29;;;;;;;;;;;;;;;29.62;38.56;100318.81;5117392;28;815;-36
2021/07/21 06:30:54;;;;;;;;;;;;;;;29.71;38.45;100322.16;5117600;28;858;-45
2021/07/21 06:33:19;;;;;;;;;;;;;;;29.79;38.58;100321.91;5117432;28;1901;-37
2021/07/21 06:35:45;;;;;;;;;;;;;;;29.80;38.21;100320.88;5110243;28;1384;-35
2021/07/21 06:38:10;;;;;;;;;;;;;;;29.91;37.79;100321.25;5117065;28;891;-36
2021/07/21 06:40:36;;;;;;;;;;;;;;;29.91;37.87;100315.84;5117537;28;779;-35
2021/07/21 06:43:01;;;;;;;;;;;;;;;29.95;37.71;100319.78;5116934;28;950;-35
2021/07/21 06:45:26;;;;;;;;;;;;;;;29.91;38.05;100316.66;5116506;28;1467;-37
2021/07/21 06:47:51;;;;;;;;;;;;;;;29.94;38.33;100313.53;5112631;28;1067;-36
2021/07/21 06:50:17;;;;;;;;;;;;;;;30.01;38.04;100305.34;5116334;28;1487;-36
2021/07/21 06:52:42;;;;;;;;;;;;;;;29.94;37.86;100318.97;5117062;28;1976;-35
2021/07/21 06:55:08;;;;;;;;;;;;;;;29.91;38.02;100311.22;5117403;28;866;-34
2021/07/21 06:57:33;;;;;;;;;;;;;;;29.86;38.17;100313.78;5116382;28;943;-36
2021/07/21 06:59:58;;;;;;;;;;;;;;;29.92;38.44;100315.63;5115007;28;809;-35
2021/07/21 07:02:23;;;;;;;;;;;;;;;29.89;38.97;100326.06;5100603;28;1440;-37
2021/07/21 07:04:49;;;;;;;;;;;;;;;29.92;39.00;100322.91;5116901;28;1376;-35
2021/07/21 07:07:15;;;;;;;;;;;;;;;29.92;38.39;100314.78;5116086;28;1281;-43
2021/07/21 07:09:40;;;;;;;;;;;;;;;29.86;38.33;100319.19;5117051;28;791;-35
2021/07/21 07:12:06;;;;;;;;;;;;;;;29.85;38.41;100319.38;5116823;28;946;-36
2021/07/21 07:14:31;;;;;;;;;;;;;;;29.88;38.57;100324.41;5109584;28;2209;-38
2021/07/21 07:16:56;;;;;;;;;;;;;;;29.85;39.23;100314.81;5117028;28;854;-35
2021/07/21 07:19:22;;;;;;;;;;;;;;;29.76;39.32;100322.31;5116516;28;1399;-35
2021/07/21 07:21:47;;;;;;;;;;;;;;;29.76;38.98;100322.31;5116368;28;1360;-36
2021/07/21 07:24:12;;;;;;;;;;;;;;;29.78;38.97;100322.13;5116679;28;1337;-36
2021/07/21 07:26:38;;;;;;;;;;;;;;;29.88;38.49;100318.97;5112181;28;872;-36
2021/07/21 07:29:03;;;;;;;;;;;;;;;29.85;38.65;100324.81;5116632;28;767;-43
2021/07/21 07:31:28;;;;;;;;;;;;;;;29.86;38.76;100316.50;5116185;28;1483;-36
2021/07/21 07:33:54;;;;;;;;;;;;;;;29.97;38.94;100330.41;5116860;28;1988;-43
2021/07/21 07:36:19;;;;;;;;;;;;;;;29.87;38.80;100326.28;5116810;28;808;-36
2021/07/21 07:38:44;;;;;;;;;;;;;;;29.91;37.84;100330.22;5114439;28;1297;-35
2021/07/21 07:41:10;;;;;;;;;;;;;;;29.74;38.12;100329.00;5116064;28;947;-37
2021/07/21 07:43:38;;;;;;;;;;;;;;;29.79;38.12;100327.34;5116443;28;843;-44
2021/07/21 07:46:04;;;;;;;;;;;;;;;29.98;38.31;100330.19;5117108;28;787;-37
2021/07/21 07:48:30;;;;;;;;;;;;;;;29.85;39.12;100331.06;5115975;28;1281;-42
2021/07/21 07:50:55;;;;;;;;;;;;;;;30.04;38.08;100326.66;5115998;28;1058;-37
2021/07/21 07:53:20;;;;;;;;;;;;;;;29.98;38.14;100323.97;5096230;28;1991;-43
2021/07/21 07:55:45;;;;;;;;;;;;;;;30.00;37.89;100329.97;5102261;28;815;-42
2021/07/21 07:58:11;;;;;;;;;;;;;;;29.94;38.00;100328.97;5116015;28;950;-36
2021/07/21 08:00:36;;;;;;;;;;;;;;;30.01;37.94;100332.47;5116923;28;814;-37
2021/07/21 08:03:01;;;;;;;;;;;;;;;30.09;37.88;100336.84;5117514;28;886;-34
2021/07/21 08:05:27;;;;;;;;;;;;;;;30.16;38.02;100332.22;5104439;28;815;-36
2021/07/21 08:07:52;;;;;;;;;;;;;;;30.25;37.53;100329.31;5099787;28;863;-37
2021/07/21 08:10:17;;;;;;;;;;;;;;;30.27;37.02;100329.94;5116023;28;1452;-36
2021/07/21 08:12:43;;;;;;;;;;;;;;;30.27;36.97;100329.94;5119650;28;1897;-38
2021/07/21 08:15:12;;;;;;;;;;;;;;;30.30;36.80;100329.50;5119255;28;1241;-36
2021/07/21 08:17:37;;;;;;;;;;;;;;;30.35;36.82;100326.97;5107075;28;1258;-36
2021/07/21 08:20:03;;;;;;;;;;;;;;;30.37;37.13;100333.03;5112552;28;1412;-35
2021/07/21 08:22:28;;;;;;;;;;;;;;;30.37;37.71;100324.03;5100974;28;1527;-35
2021/07/21 08:24:54;;;;;;;;;;;;;;;30.32;38.13;100327.41;5118199;28;1479;-36
2021/07/21 08:27:19;;;;;;;;;;;;;;;30.25;37.76;100321.16;5119079;28;1249;-35
2021/07/21 08:29:44;;;;;;;;;;;;;;;30.22;37.57;100317.00;5114319;28;804;-43
2021/07/21 08:32:09;;;;;;;;;;;;;;;29.66;37.37;100316.53;5114080;28;1321;-41
2021/07/21 08:34:35;;;;;;;;;;;;;;;30.06;37.50;100323.72;5119844;28;1968;-40
2021/07/21 08:37:00;;;;;;;;;;;;;;;30.10;38.06;100326.81;5119569;28;826;-36
2021/07/21 08:39:25;;;;;;;;;;;;;;;30.21;38.49;100322.66;5119058;28;751;-35
2021/07/21 08:41:50;;;;;;;;;;;;;;;30.17;38.08;100328.47;5119364;28;914;-41
2021/07/21 08:44:17;;;;;;;;;;;;;;;30.13;37.23;100321.81;5081557;28;824;-34
2021/07/21 08:46:43;;;;;;;;;;;;;;;30.21;37.05;100326.22;5081245;28;1441;-39
2021/07/21 08:49:08;;;;;;;;;;;;;;;30.14;37.09;100328.91;5098456;28;1097;-34
2021/07/21 08:51:34;;;;;;;;;;;;;;;30.13;37.14;100326.41;5088119;28;1253;-42
2021/07/21 08:53:59;;;;;;;;;;;;;;;30.02;37.42;100320.59;5119146;28;1913;-35
2021/07/21 08:56:24;;;;;;;;;;;;;;;30.04;37.15;100318.53;5090787;28;866;-41
2021/07/21 08:58:49;;;;;;;;;;;;;;;30.06;37.47;100321.00;5119147;28;972;-36
2021/07/21 09:01:15;;;;;;;;;;;;;;;30.16;37.79;100329.50;5119161;28;848;-36
2021/07/21 09:03:41;;;;;;;;;;;;;;;30.10;37.66;100319.53;5118882;28;803;-35
2021/07/21 09:06:07;;;;;;;;;;;;;;;29.96;37.66;100321.47;5100989;28;829;-35
2021/07/21 09:08:33;;;;;;;;;;;;;;;29.95;37.47;100322.50;5091128;28;1295;-35
2021/07/21 09:10:59;;;;;;;;;;;;;;;29.87;37.79;100328.97;5081562;28;1109;-35
2021/07/21 09:13:24;;;;;;;;;;;;;;;29.91;37.85;100324.78;5117431;28;1905;-36
2021/07/21 09:15:50;;;;;;;;;;;;;;;29.96;38.08;100323.34;5117891;28;1491;-36
2021/07/21 09:18:16;;;;;;;;;;;;;;;29.96;38.49;100316.03;5099924;28;1512;-36
2021/07/21 09:20:42;;;;;;;;;;;;;;;29.88;38.45;100325.22;5117583;28;1396;-36
2021/07/21 09:23:08;;;;;;;;;;;;;;;29.81;38.26;100324.41;5099974;28;1317;-36
2021/07/21 09:25:34;;;;;;;;;;;;;;;29.82;38.02;100318.78;5119089;28;816;-35
2021/07/21 09:28:00;;;;;;;;;;;;;;;29.83;37.78;100316.88;5116219;28;1145;-36
2021/07/21 09:30:32;;;;;;;;;;;;;;;29.60;38.15;100320.06;5118990;28;801;-38
2021/07/21 09:33:02;;;;;;;;;;;;;;;29.81;38.26;100316.28;5118949;28;1914;-36
2021/07/21 09:35:28;;;;;;;;;;;;;;;29.87;38.76;100312.72;5098032;28;736;-34
2021/07/21 09:37:56;;;;;;;;;;;;;;;29.92;38.34;100314.78;5103343;28;1575;-35
2021/07/21 09:40:22;;;;;;;;;;;;;;;29.90;37.45;100315.00;5116126;28;1407;-38
2021/07/21 09:42:48;;;;;;;;;;;;;;;29.75;37.16;100315.25;5117608;28;843;-34
2021/07/21 09:45:14;;;;;;;;;;;;;;;29.80;37.40;100320.03;5117978;28;980;-35
2021/07/21 09:47:47;;;;;;;;;;;;;;;29.87;37.47;100315.44;5117082;28;1158;-34
2021/07/21 09:50:16;;;;;;;;;;;;;;;29.89;37.41;100316.06;5118142;28;740;-35
2021/07/21 09:52:48;;;;;;;;;;;;;;;29.87;37.53;100315.44;5100738;28;1913;-38
2021/07/21 09:55:15;;;;;;;;;;;;;;;29.89;37.76;100316.06;5097675;28;835;-34
2021/07/21 09:57:40;;;;;;;;;;;;;;;30.13;37.36;100318.28;5116094;28;868;-42
2021/07/21 10:00:26;;;;;;;;;;;;;;;30.15;37.31;100308.03;5104643;28;864;-35
2021/07/21 10:03:05;;;;;;;;;;;;;;;30.27;36.86;100306.34;5096768;28;1978;-36
2021/07/21 10:05:31;;;;;;;;;;;;;;;30.24;36.89;100304.06;5098116;28;740;-42
2021/07/21 10:08:02;;;;;;;;;;;;;;;30.30;36.68;100305.06;5097881;28;807;-35
2021/07/21 10:10:27;;;;;;;;;;;;;;;30.30;36.72;100305.91;5113300;28;1476;-34
2021/07/21 10:12:59;;;;;;;;;;;;;;;30.31;37.14;100310.28;5104043;28;1981;-35
2021/07/21 10:15:25;;;;;;;;;;;;;;;30.30;37.48;100303.22;5109739;28;753;-42
2021/07/21 10:18:03;;;;;;;;;;;;;;;30.15;37.71;100306.16;5117690;28;803;-43
2021/07/21 10:20:28;;;;;;;;;;;;;;;30.15;37.42;100305.31;5117504;28;986;-35
2021/07/21 10:22:53;;;;;;;;;;;;;;;30.12;37.17;100298.44;5099258;28;815;-40
2021/07/21 10:25:19;;;;;;;;;;;;;;;30.21;36.98;100298.25;5092883;28;846;-34
2021/07/21 10:27:44;;;;;;;;;;;;;;;30.25;36.83;100300.31;5117219;28;970;-36
2021/07/21 10:30:09;;;;;;;;;;;;;;;30.25;37.07;100296.75;5099466;28;810;-36
2021/07/21 10:32:35;;;;;;;;;;;;;;;30.23;37.60;100296.16;5117792;28;1959;-41
2021/07/21 10:35:00;;;;;;;;;;;;;;;30.18;37.38;100305.72;5099379;28;858;-40
2021/07/21 10:37:25;;;;;;;;;;;;;;;30.19;36.58;100295.72;5112010;28;823;-42
2021/07/21 10:39:52;;;;;;;;;;;;;;;30.18;36.26;100294.03;5110407;28;842;-38
2021/07/21 10:42:18;;;;;;;;;;;;;;;30.17;36.21;100297.81;5116954;28;959;-35
2021/07/21 10:44:46;;;;;;;;;;;;;;;30.16;36.19;100288.81;5098812;28;874;-42
2021/07/21 10:47:23;;;;;;;;;;;;;;;30.12;36.38;100295.75;5096145;28;1222;-36
2021/07/21 10:49:59;;;;;;;;;;;;;;;30.10;36.56;100295.13;5095638;28;820;-33
2021/07/21 10:52:43;;;;;;;;;;;;;;;29.96;37.97;100288.09;5090824;28;1143;-34
2021/07/21 10:55:18;;;;;;;;;;;;;;;29.91;38.56;100289.53;5096824;28;853;-41
2021/07/21 11:00:28;;;;;;;;;;;;;;;29.82;37.19;100283.53;5094349;28;1368;-35
2021/07/21 11:02:54;;;;;;;;;;;;;;;29.76;37.41;100284.38;5096284;28;828;-34
2021/07/21 11:05:35;;;;;;;;;;;;;;;29.75;37.41;100273.75;5096908;28;748;-32
2021/07/21 11:08:03;;;;;;;;;;;;;;;29.83;37.38;100278.94;5096338;28;831;-36
2021/07/21 11:10:29;;;;;;;;;;;;;;;29.75;37.91;100277.28;5096834;28;822;-34
2021/07/21 11:12:55;;;;;;;;;;;;;;;29.93;37.66;100276.59;5095382;28;1973;-34
2021/07/21 11:15:35;;;;;;;;;;;;;;;30.06;37.76;100277.63;5078019;28;816;-31
2021/07/21 11:18:19;;;;;;;;;;;;;;;30.02;37.64;100273.66;5096537;28;1444;-42
2021/07/21 11:21:00;;;;;;;;;;;;;;;30.00;36.59;100271.16;5093931;28;748;-34
2021/07/21 11:23:43;;;;;;;;;;;;;;;29.98;35.97;100273.25;5096490;28;776;-37
2021/07/21 11:26:27;;;;;;;;;;;;;;;29.85;36.62;100274.13;5095616;28;974;-35
2021/07/21 11:28:53;;;;;;;;;;;;;;;29.84;37.19;100274.34;5089194;28;867;-33
2021/07/21 11:31:18;;;;;;;;;;;;;;;29.81;37.14;100272.91;5057647;28;967;-36
2021/07/21 11:33:48;;;;;;;;;;;;;;;29.98;37.00;100267.81;5075673;28;1979;-33
2021/07/21 11:36:33;;;;;;;;;;;;;;;30.08;37.11;100266.56;5076361;28;764;-39
2021/07/21 11:38:58;;;;;;;;;;;;;;;30.08;37.32;100255.72;5078772;28;1147;-34
2021/07/21 11:41:42;;;;;;;;;;;;;;;30.01;36.76;100256.53;5061098;28;959;-36
2021/07/21 11:44:08;;;;;;;;;;;;;;;29.98;36.78;100258.88;5079859;28;898;-38
2021/07/21 11:46:33;;;;;;;;;;;;;;;29.89;36.84;100264.53;5080224;28;736;-33
2021/07/21 11:48:58;;;;;;;;;;;;;;;29.94;36.82;100266.59;5075525;28;1096;-42
2021/07/21 11:51:23;;;;;;;;;;;;;;;29.91;36.53;100265.13;5080011;28;1071;-41
2021/07/21 11:53:49;;;;;;;;;;;;;;;29.94;37.09;100264.72;5078919;28;1910;-33
2021/07/21 11:56:14;;;;;;;;;;;;;;;30.02;37.35;100258.22;5064750;28;1034;-34
2021/07/21 11:58:39;;;;;;;;;;;;;;;30.04;36.88;100258.84;5082280;28;1393;-43
2021/07/21 12:01:05;;;;;;;;;;;;;;;30.04;36.80;100266.16;5099598;28;850;-33
2021/07/21 12:03:42;;;;;;;;;;;;;;;30.11;36.05;100261.53;5099551;28;1590;-35
2021/07/21 12:06:07;;;;;;;;;;;;;;;30.06;36.06;100256.75;5081272;28;739;-34
2021/07/21 12:08:32;;;;;;;;;;;;;;;30.02;36.32;100269.06;5078696;28;883;-36
2021/07/21 12:10:58;;;;;;;;;;;;;;;30.03;36.45;100267.22;5075620;28;840;-33
2021/07/21 12:13:23;;;;;;;;;;;;;;;30.07;36.63;100268.44;5081235;28;1961;-33
2021/07/21 12:16:01;;;;;;;;;;;;;;;30.14;36.94;100261.09;5083450;28;747;-34
2021/07/21 12:18:26;;;;;;;;;;;;;;;30.10;36.47;100251.72;5079445;28;827;-33
2021/07/21 12:20:51;;;;;;;;;;;;;;;30.19;36.38;100260.44;5092665;28;860;-31
2021/07/21 12:23:20;;;;;;;;;;;;;;;30.25;35.81;100262.31;5098980;28;819;-31
2021/07/21 12:25:45;;;;;;;;;;;;;;;30.27;35.34;100256.69;5089006;28;1487;-33
2021/07/21 12:28:10;;;;;;;;;;;;;;;30.20;35.36;100259.41;5084542;28;1098;-42
2021/07/21 12:30:38;;;;;;;;;;;;;;;30.19;35.41;100266.72;5085668;28;833;-30
2021/07/21 12:33:04;;;;;;;;;;;;;;;30.23;35.58;100258.97;5089007;28;1897;-32
2021/07/21 12:35:29;;;;;;;;;;;;;;;30.24;35.92;100259.81;5080268;28;812;-32
2021/07/21 12:37:55;;;;;;;;;;;;;;;30.17;36.31;100266.09;5079190;28;484;-38
2021/07/21 12:40:21;;;;;;;;;;;;;;;30.14;36.42;100255.69;5078863;28;839;-46
2021/07/21 12:42:50;;;;;;;;;;;;;;;30.23;36.11;100252.75;5095287;28;947;-44
2021/07/21 12:45:16;;;;;;;;;;;;;;;30.23;35.69;100253.56;5098339;28;804;-39
2021/07/21 12:47:45;;;;;;;;;;;;;;;30.20;35.77;100248.56;5098155;28;1242;-38
2021/07/21 12:50:11;;;;;;;;;;;;;;;30.26;35.79;100255.84;5098702;28;778;-44
2021/07/21 12:52:43;;;;;;;;;;;;;;;30.34;35.77;100252.06;5082304;28;1906;-45
2021/07/21 12:55:09;;;;;;;;;;;;;;;30.47;35.38;100248.44;5078490;28;768;-40
2021/07/21 12:57:38;;;;;;;;;;;;;;;30.52;35.17;100242.34;5091971;28;907;-37
2021/07/21 13:00:24;;;;;;;;;;;;;;;30.54;34.83;100245.69;5078758;28;851;-38